Terminal Aerodrome Forecast
Issued by NWS Mt. Holly, NJ

Home | Current Version | Previous Version | Text Only | Print | Product List | Glossary On
Versions: 1 2 3 4 5 6 7 8 9 10 11 12 13 14 15 16 17 18 19 20 21 22 23 24
000
FTUS41 KPHI 230248 AAA
TAFILG
TAF AMD
KILG 230248Z 2303/2324 20010G18KT P6SM BKN040
      TEMPO 2303/2305 26015G35KT 2SM +TSRA BR OVC008CB
     FM230500 24006KT P6SM -SHRA SCT020 OVC040
     FM230700 26006KT P6SM BKN040
     FM231100 32008KT P6SM BKN050
     FM231700 32008KT P6SM SCT050=

USA.gov is the U.S. government's official web portal to all federal, state and local government web resources and services.